Time;durP1;ratioP1;P1;durP2;ratioP2;P2;SDS_P1;SDS_P2;PMS_P1;PMS_P2;Temp;Humidity;BMP_temperature;BMP_pressure;BME280_temperature;BME280_humidity;BME280_pressure;Samples;Min_cycle;Max_cycle;Signal;HPM_P1;HPM_P2
2022/04/13 00:01:41;;;;;;;12.13;7.60;;;12.50;73.30;;;;;;5104053;28;20321;-68
2022/04/13 00:04:06;;;;;;;10.93;7.22;;;12.50;73.60;;;;;;5086633;28;20058;-68
2022/04/13 00:06:32;;;;;;;11.15;6.68;;;12.50;73.70;;;;;;5090606;28;20024;-68
2022/04/13 00:08:58;;;;;;;9.30;7.13;;;12.40;73.90;;;;;;5091837;28;20393;-68
2022/04/13 00:11:23;;;;;;;8.85;6.50;;;12.40;74.00;;;;;;5078316;28;20051;-69
2022/04/13 00:13:49;;;;;;;9.55;6.60;;;12.30;74.10;;;;;;5105319;28;20443;-68
2022/04/13 00:16:14;;;;;;;10.18;7.45;;;12.20;74.50;;;;;;5092078;28;20061;-68
2022/04/13 00:18:40;;;;;;;9.20;7.32;;;12.10;74.90;;;;;;5092215;28;20063;-68
2022/04/13 00:21:05;;;;;;;11.00;7.30;;;12.10;75.10;;;;;;5097122;28;20379;-68
2022/04/13 00:23:31;;;;;;;10.38;7.43;;;12.00;75.40;;;;;;5073715;28;20044;-68
2022/04/13 00:26:00;;;;;;;12.98;7.32;;;11.90;75.60;;;;;;5091144;28;20047;-68
2022/04/13 00:28:25;;;;;;;14.77;7.28;;;11.90;75.80;;;;;;5091889;28;20594;-68
2022/04/13 00:30:51;;;;;;;13.00;7.80;;;11.80;76.00;;;;;;5092513;28;20046;-68
2022/04/13 00:33:16;;;;;;;12.00;8.10;;;11.90;76.00;;;;;;5091836;28;20047;-68
2022/04/13 00:35:42;;;;;;;12.50;7.90;;;11.90;76.30;;;;;;5086160;28;20050;-68
2022/04/13 00:38:07;;;;;;;11.75;7.40;;;11.80;76.70;;;;;;5089295;28;20133;-68
2022/04/13 00:40:38;;;;;;;9.88;7.18;;;11.80;77.90;;;;;;5089014;28;20195;-68
2022/04/13 00:43:04;;;;;;;8.27;6.50;;;11.70;77.90;;;;;;5103082;28;20054;-68
2022/04/13 00:45:29;;;;;;;10.20;7.70;;;11.70;77.90;;;;;;5092321;28;20447;-68
2022/04/13 00:47:55;;;;;;;11.88;7.18;;;11.70;78.10;;;;;;5092334;28;20084;-68
2022/04/13 00:50:21;;;;;;;11.15;7.70;;;11.60;78.30;;;;;;5110936;28;20043;-68
2022/04/13 00:52:49;;;;;;;10.68;7.20;;;11.60;78.30;;;;;;5086752;28;20031;-68
2022/04/13 00:55:15;;;;;;;11.85;7.57;;;11.60;78.50;;;;;;5091468;28;20059;-68
2022/04/13 00:57:42;;;;;;;11.73;7.32;;;11.60;78.50;;;;;;5087846;28;20067;-68
2022/04/13 01:00:10;;;;;;;10.80;7.38;;;11.70;78.30;;;;;;5084149;28;20123;-67
2022/04/13 01:02:37;;;;;;;10.90;7.55;;;11.80;78.20;;;;;;5088145;28;20090;-67
2022/04/13 01:05:06;;;;;;;11.82;6.60;;;11.80;78.00;;;;;;5086287;28;20078;-68
2022/04/13 01:07:33;;;;;;;11.18;7.30;;;11.80;77.90;;;;;;5088854;28;20051;-68
2022/04/13 01:10:01;;;;;;;11.68;8.27;;;11.80;77.90;;;;;;5088579;28;20122;-68
2022/04/13 01:12:26;;;;;;;12.52;8.30;;;11.80;78.00;;;;;;5088220;28;20035;-67
2022/04/13 01:14:53;;;;;;;12.85;8.20;;;11.90;78.50;;;;;;5101254;28;20023;-68
2022/04/13 01:17:19;;;;;;;13.20;8.38;;;12.00;77.20;;;;;;5086733;28;20040;-68
2022/04/13 01:19:48;;;;;;;13.85;8.20;;;11.90;77.40;;;;;;5072665;28;20126;-68
2022/04/13 01:22:21;;;;;;;9.98;7.47;;;11.90;77.50;;;;;;5107269;28;20048;-70
2022/04/13 01:24:48;;;;;;;11.35;7.70;;;11.90;78.10;;;;;;5085594;28;20036;-68
2022/04/13 01:27:17;;;;;;;13.30;8.75;;;11.90;77.40;;;;;;5089237;28;20081;-68
2022/04/13 01:29:43;;;;;;;11.35;8.60;;;11.90;77.60;;;;;;5090468;28;20078;-68
2022/04/13 01:32:11;;;;;;;14.07;8.07;;;11.90;77.60;;;;;;5088786;28;20132;-67
2022/04/13 01:34:37;;;;;;;12.77;8.55;;;12.00;77.50;;;;;;5090136;28;20116;-68
2022/04/13 01:37:03;;;;;;;12.43;8.32;;;12.00;77.10;;;;;;5087379;28;20401;-67
2022/04/13 01:39:29;;;;;;;18.00;8.80;;;12.10;77.00;;;;;;5086327;28;20041;-67
2022/04/13 01:41:55;;;;;;;13.02;8.27;;;12.10;76.70;;;;;;5108447;28;20158;-69
2022/04/13 01:44:20;;;;;;;14.63;9.05;;;12.10;76.70;;;;;;5088377;28;20458;-69
2022/04/13 01:46:46;;;;;;;13.07;8.95;;;12.10;76.60;;;;;;5090800;28;20191;-67
2022/04/13 01:49:11;;;;;;;13.25;8.40;;;12.10;76.80;;;;;;5090510;28;20031;-68
2022/04/13 01:51:37;;;;;;;14.43;8.52;;;12.10;77.00;;;;;;5089472;28;20031;-68
2022/04/13 01:54:03;;;;;;;13.45;8.68;;;12.10;77.10;;;;;;5089267;28;20903;-68
2022/04/13 01:56:28;;;;;;;11.93;7.97;;;12.00;77.20;;;;;;5087393;28;20031;-68
2022/04/13 01:58:54;;;;;;;13.60;8.80;;;12.00;77.40;;;;;;5086565;28;20142;-67
2022/04/13 02:01:19;;;;;;;14.80;8.60;;;11.90;77.50;;;;;;5106017;28;20054;-68
2022/04/13 02:03:45;;;;;;;11.85;8.75;;;11.90;77.70;;;;;;5084314;28;20131;-68
2022/04/13 02:06:11;;;;;;;13.52;8.43;;;11.80;77.90;;;;;;5088431;28;20419;-68
2022/04/13 02:08:36;;;;;;;13.70;9.25;;;11.80;77.90;;;;;;5105613;28;20051;-67
2022/04/13 02:11:03;;;;;;;14.60;8.95;;;11.80;78.00;;;;;;5087343;28;20126;-68
2022/04/13 02:13:29;;;;;;;15.32;10.15;;;11.80;78.20;;;;;;5087876;28;20051;-68
2022/04/13 02:15:54;;;;;;;15.05;9.30;;;11.70;78.30;;;;;;5071727;28;20035;-72
2022/04/13 02:18:20;;;;;;;12.60;9.30;;;11.70;78.60;;;;;;5100676;28;20047;-67
2022/04/13 02:20:46;;;;;;;10.35;8.35;;;11.60;78.70;;;;;;5070289;28;20400;-69
2022/04/13 02:23:11;;;;;;;14.38;8.93;;;11.60;78.90;;;;;;5088735;28;20138;-68
2022/04/13 02:25:37;;;;;;;16.13;9.48;;;11.50;79.10;;;;;;5086680;28;20032;-67
2022/04/13 02:28:04;;;;;;;15.20;9.18;;;11.50;79.50;;;;;;5084848;28;20046;-68
2022/04/13 02:30:30;;;;;;;15.05;9.20;;;11.50;79.70;;;;;;5087467;28;20040;-68
2022/04/13 02:32:55;;;;;;;12.73;8.73;;;11.40;79.70;;;;;;5109216;28;20081;-68
2022/04/13 02:35:21;;;;;;;12.95;9.15;;;11.40;79.90;;;;;;5104855;28;20084;-68
2022/04/13 02:37:46;;;;;;;14.05;8.98;;;11.40;80.00;;;;;;5088123;28;20032;-68
2022/04/13 02:40:13;;;;;;;13.25;9.20;;;11.40;80.10;;;;;;5079016;28;20568;-68
2022/04/13 02:42:39;;;;;;;12.85;9.05;;;11.40;80.20;;;;;;5090284;28;20058;-68
2022/04/13 02:45:05;;;;;;;13.40;9.13;;;11.30;80.30;;;;;;5103365;28;20478;-68
2022/04/13 02:47:35;;;;;;;17.67;10.70;;;11.40;80.30;;;;;;5085339;28;20484;-69
2022/04/13 02:50:02;;;;;;;14.77;9.50;;;11.40;80.40;;;;;;5077801;28;20399;-67
2022/04/13 02:52:28;;;;;;;16.17;8.63;;;11.40;80.30;;;;;;5088291;28;20048;-68
2022/04/13 02:54:55;;;;;;;12.50;9.25;;;11.30;80.30;;;;;;5088258;28;20070;-68
2022/04/13 02:57:21;;;;;;;16.20;9.60;;;11.40;80.50;;;;;;5086941;28;20358;-67
2022/04/13 02:59:48;;;;;;;16.48;10.13;;;11.40;80.50;;;;;;5088310;28;20048;-67
2022/04/13 03:02:14;;;;;;;12.77;9.10;;;11.30;80.50;;;;;;5088397;28;20057;-67
2022/04/13 03:04:42;;;;;;;15.82;9.40;;;11.30;80.60;;;;;;5090801;28;20074;-67
2022/04/13 03:07:09;;;;;;;14.68;9.60;;;11.30;80.80;;;;;;5087288;28;20197;-67
2022/04/13 03:09:35;;;;;;;14.65;9.60;;;11.20;80.80;;;;;;5104114;28;20047;-68
2022/04/13 03:12:01;;;;;;;18.00;11.13;;;11.20;81.00;;;;;;5083525;28;20463;-68
2022/04/13 03:14:26;;;;;;;16.98;10.35;;;11.20;81.20;;;;;;5088794;28;20100;-67
2022/04/13 03:16:52;;;;;;;15.48;10.40;;;11.10;81.40;;;;;;5065188;28;20036;-67
2022/04/13 03:19:17;;;;;;;14.68;9.90;;;11.10;81.60;;;;;;5089333;28;20035;-67
2022/04/13 03:21:43;;;;;;;12.88;9.48;;;11.00;81.90;;;;;;5089286;28;20028;-68
2022/04/13 03:24:08;;;;;;;14.77;9.65;;;11.00;82.00;;;;;;5083347;28;20138;-67
2022/04/13 03:26:34;;;;;;;15.75;9.65;;;11.00;82.10;;;;;;5086189;28;20164;-67
2022/04/13 03:28:59;;;;;;;18.05;10.27;;;11.00;82.30;;;;;;5110654;28;20130;-67
2022/04/13 03:31:25;;;;;;;18.55;10.38;;;11.00;82.30;;;;;;5091564;28;20160;-67
2022/04/13 03:33:50;;;;;;;15.95;10.23;;;11.00;82.40;;;;;;5112474;28;20483;-68
2022/04/13 03:36:17;;;;;;;18.35;10.80;;;11.00;82.40;;;;;;5089713;28;20046;-68
2022/04/13 03:38:42;;;;;;;17.83;10.02;;;11.00;82.50;;;;;;5074301;28;20362;-68
2022/04/13 03:41:08;;;;;;;16.85;10.75;;;11.10;82.40;;;;;;5088005;28;20122;-67
2022/04/13 03:43:33;;;;;;;21.95;11.15;;;11.10;82.40;;;;;;5094204;28;20037;-68
2022/04/13 03:45:59;;;;;;;20.42;11.75;;;11.10;82.30;;;;;;5076070;28;20036;-67
2022/04/13 03:48:24;;;;;;;21.60;11.70;;;11.20;82.30;;;;;;5092652;28;20043;-68
2022/04/13 03:50:50;;;;;;;23.02;11.65;;;11.20;82.20;;;;;;5111049;28;20042;-67
2022/04/13 03:53:16;;;;;;;17.48;10.85;;;11.30;82.20;;;;;;5090648;28;20036;-68
2022/04/13 03:55:41;;;;;;;18.98;11.65;;;11.40;82.10;;;;;;5090426;28;20210;-67
2022/04/13 03:58:07;;;;;;;19.50;11.52;;;11.40;81.90;;;;;;5092394;28;20453;-68
2022/04/13 04:00:33;;;;;;;19.65;11.98;;;11.50;81.80;;;;;;5092010;28;20055;-67
2022/04/13 04:02:59;;;;;;;16.77;11.55;;;11.50;81.70;;;;;;5087809;28;20105;-68
2022/04/13 04:05:24;;;;;;;22.55;12.18;;;11.60;81.40;;;;;;5072960;28;20035;-68
2022/04/13 04:07:50;;;;;;;19.48;12.02;;;11.70;81.20;;;;;;5088648;28;20075;-67
2022/04/13 04:10:15;;;;;;;19.08;12.27;;;11.70;81.00;;;;;;5091596;28;20043;-68
2022/04/13 04:12:42;;;;;;;20.27;12.73;;;11.80;80.90;;;;;;5087735;28;20036;-68
2022/04/13 04:15:09;;;;;;;23.05;12.27;;;11.80;80.80;;;;;;5091430;28;20434;-68
2022/04/13 04:17:36;;;;;;;27.15;12.68;;;11.90;80.80;;;;;;5092244;28;20043;-68
2022/04/13 04:20:02;;;;;;;26.95;12.70;;;11.90;80.70;;;;;;5110424;28;20039;-68
2022/04/13 04:22:28;;;;;;;23.13;12.38;;;11.90;80.50;;;;;;5076702;28;20083;-68
2022/04/13 04:24:54;;;;;;;21.55;12.23;;;11.90;80.40;;;;;;5082565;28;20101;-67
2022/04/13 04:27:20;;;;;;;22.65;12.60;;;12.00;80.50;;;;;;5089862;28;20039;-68
2022/04/13 04:29:46;;;;;;;19.17;12.13;;;12.00;80.50;;;;;;5089366;28;20066;-68
2022/04/13 04:32:11;;;;;;;21.80;12.90;;;12.00;80.50;;;;;;5091860;28;20036;-68
2022/04/13 04:34:40;;;;;;;22.77;12.32;;;12.00;80.60;;;;;;5074831;28;20067;-68
2022/04/13 04:37:06;;;;;;;21.40;12.23;;;11.90;80.70;;;;;;5090754;28;20340;-68
2022/04/13 04:39:31;;;;;;;20.10;12.10;;;11.90;81.40;;;;;;5087190;28;20054;-68
2022/04/13 04:41:57;;;;;;;20.42;12.50;;;11.90;80.90;;;;;;5091357;28;20040;-68
2022/04/13 04:44:22;;;;;;;28.73;13.30;;;11.90;81.20;;;;;;5089671;28;20599;-68
2022/04/13 04:46:48;;;;;;;18.33;11.93;;;11.90;81.30;;;;;;5092823;28;20070;-68
2022/04/13 04:49:14;;;;;;;22.20;11.32;;;11.90;82.30;;;;;;5088617;28;20323;-68
2022/04/13 04:51:39;;;;;;;25.42;13.10;;;11.80;81.70;;;;;;5100956;28;20388;-68
2022/04/13 04:54:05;;;;;;;20.95;12.43;;;11.80;81.70;;;;;;5084238;28;20040;-68
2022/04/13 04:56:31;;;;;;;21.20;12.15;;;11.70;81.80;;;;;;5083396;28;20455;-68
2022/04/13 04:58:57;;;;;;;22.98;12.45;;;11.70;81.90;;;;;;5064945;28;20146;-67
2022/04/13 05:01:23;;;;;;;19.75;12.48;;;11.70;82.20;;;;;;5091068;28;20053;-68
2022/04/13 05:03:49;;;;;;;20.63;12.20;;;11.60;82.40;;;;;;5090956;28;20097;-68
2022/04/13 05:06:22;;;;;;;26.65;12.93;;;11.50;82.70;;;;;;5074429;28;20413;-68
2022/04/13 05:08:49;;;;;;;19.88;12.38;;;11.50;83.00;;;;;;5088463;28;20043;-68
2022/04/13 05:11:15;;;;;;;22.50;12.63;;;11.40;83.20;;;;;;5103148;28;20044;-68
2022/04/13 05:13:41;;;;;;;23.02;12.80;;;11.40;83.50;;;;;;5088460;28;20149;-68
2022/04/13 05:16:07;;;;;;;20.75;12.85;;;11.30;83.80;;;;;;5089100;28;20056;-68
2022/04/13 05:18:33;;;;;;;21.65;12.20;;;11.20;84.00;;;;;;5080270;28;20395;-68
2022/04/13 05:20:59;;;;;;;22.50;12.20;;;11.20;84.30;;;;;;5109830;28;20459;-68
2022/04/13 05:23:25;;;;;;;20.80;11.60;;;11.20;84.60;;;;;;5088096;28;20118;-68
2022/04/13 05:25:50;;;;;;;25.05;12.32;;;11.10;84.90;;;;;;5105277;28;20028;-68
2022/04/13 05:28:16;;;;;;;20.63;12.43;;;11.10;85.20;;;;;;5108189;28;20040;-68
2022/04/13 05:30:41;;;;;;;21.70;12.35;;;11.10;85.20;;;;;;5080964;28;20434;-68
2022/04/13 05:33:07;;;;;;;22.77;12.55;;;11.10;85.50;;;;;;5089843;28;20490;-67
2022/04/13 05:35:33;;;;;;;20.00;11.65;;;11.10;86.00;;;;;;5091228;28;20047;-68
2022/04/13 05:37:59;;;;;;;17.45;10.60;;;11.10;85.90;;;;;;5108824;28;20031;-68
2022/04/13 05:40:24;;;;;;;22.98;12.40;;;11.20;86.00;;;;;;5072017;28;20459;-68
2022/04/13 05:42:51;;;;;;;18.85;12.00;;;11.20;86.20;;;;;;5089643;28;20110;-67
2022/04/13 05:45:17;;;;;;;25.42;12.98;;;11.20;86.30;;;;;;5090437;28;20059;-68
2022/04/13 05:47:43;;;;;;;22.58;12.18;;;11.30;86.40;;;;;;5101435;28;20145;-68
2022/04/13 05:50:10;;;;;;;21.25;13.07;;;11.30;86.60;;;;;;5089472;28;20042;-67
2022/04/13 05:52:36;;;;;;;26.75;14.10;;;11.40;86.30;;;;;;5090540;28;20047;-67
2022/04/13 05:55:02;;;;;;;22.40;12.82;;;11.50;86.30;;;;;;5086986;28;20048;-68
2022/04/13 05:57:28;;;;;;;25.02;14.70;;;11.60;86.10;;;;;;5088071;28;20071;-68
2022/04/13 05:59:53;;;;;;;24.45;15.13;;;11.60;85.80;;;;;;5106492;28;20075;-67
2022/04/13 06:02:19;;;;;;;33.08;15.82;;;11.70;85.80;;;;;;5108561;28;20044;-68
2022/04/13 06:04:45;;;;;;;23.58;14.30;;;11.70;85.50;;;;;;5064934;28;20032;-68
2022/04/13 06:07:11;;;;;;;23.98;14.90;;;11.70;85.60;;;;;;5089269;28;20077;-68
2022/04/13 06:09:37;;;;;;;24.00;14.15;;;11.70;85.70;;;;;;5087318;28;20056;-67
2022/04/13 06:12:02;;;;;;;22.77;14.82;;;11.70;85.70;;;;;;5072422;28;20043;-67
2022/04/13 06:14:28;;;;;;;23.45;14.32;;;11.80;85.60;;;;;;5109740;28;20031;-67
2022/04/13 06:16:53;;;;;;;26.05;14.77;;;11.90;85.40;;;;;;5082808;28;20061;-67
2022/04/13 06:19:19;;;;;;;24.33;14.75;;;11.90;85.20;;;;;;5074147;28;20081;-67
2022/04/13 06:21:45;;;;;;;23.05;14.20;;;12.00;85.00;;;;;;5086433;28;20060;-68
2022/04/13 06:24:11;;;;;;;27.15;14.68;;;12.00;84.90;;;;;;5086754;28;20097;-68
2022/04/13 06:26:36;;;;;;;25.90;14.40;;;12.10;84.80;;;;;;5085793;28;20040;-67
2022/04/13 06:29:02;;;;;;;30.33;15.13;;;12.10;84.70;;;;;;5084075;28;20039;-68
2022/04/13 06:31:28;;;;;;;24.40;14.48;;;12.30;84.70;;;;;;5108003;28;20046;-68
2022/04/13 06:33:53;;;;;;;29.10;14.65;;;12.40;84.60;;;;;;5091728;28;20140;-68
2022/04/13 06:36:19;;;;;;;25.42;15.52;;;12.60;84.60;;;;;;5086245;28;20043;-68
2022/04/13 06:38:45;;;;;;;26.25;14.65;;;12.80;84.30;;;;;;5084257;28;20092;-68
2022/04/13 06:41:11;;;;;;;23.52;15.13;;;13.00;84.30;;;;;;5084606;28;20638;-68
2022/04/13 06:43:37;;;;;;;25.75;15.48;;;13.30;84.00;;;;;;5105090;28;20115;-68
2022/04/13 06:46:04;;;;;;;24.55;15.48;;;13.50;83.30;;;;;;5091671;28;20169;-68
2022/04/13 06:48:29;;;;;;;19.65;14.23;;;13.70;82.60;;;;;;5091563;28;20101;-68
2022/04/13 06:50:55;;;;;;;23.20;14.93;;;14.00;82.80;;;;;;5079391;28;20067;-68
2022/04/13 06:53:20;;;;;;;25.80;14.00;;;14.30;82.30;;;;;;5089639;28;20057;-68
2022/04/13 06:55:50;;;;;;;18.20;13.75;;;14.50;81.70;;;;;;5090113;28;20039;-68
2022/04/13 06:58:17;;;;;;;21.67;13.37;;;14.70;81.10;;;;;;5090372;28;20044;-68
2022/04/13 07:00:43;;;;;;;21.05;12.98;;;14.90;80.50;;;;;;5091509;28;20282;-68
2022/04/13 07:03:08;;;;;;;20.50;11.73;;;15.10;80.10;;;;;;5095448;28;20372;-68
2022/04/13 07:05:34;;;;;;;21.00;10.85;;;15.20;79.00;;;;;;5093868;28;20043;-69
2022/04/13 07:08:02;;;;;;;17.10;10.27;;;15.40;78.80;;;;;;5094126;28;20051;-69
2022/04/13 07:10:28;;;;;;;16.75;10.82;;;15.40;77.70;;;;;;5076813;28;20086;-68
2022/04/13 07:12:54;;;;;;;21.90;10.48;;;15.40;77.60;;;;;;5091566;28;20044;-68
2022/04/13 07:15:20;;;;;;;15.82;9.82;;;15.40;77.50;;;;;;5104642;28;20463;-69
2022/04/13 07:17:46;;;;;;;17.75;9.40;;;15.40;77.50;;;;;;5088611;28;20058;-69
2022/04/13 07:20:13;;;;;;;18.73;9.43;;;15.20;77.50;;;;;;5093765;28;20036;-69
2022/04/13 07:22:46;;;;;;;13.68;9.32;;;15.20;77.70;;;;;;5088125;28;20035;-69
2022/04/13 07:25:12;;;;;;;17.25;9.68;;;15.40;76.80;;;;;;5091025;28;20032;-69
2022/04/13 07:27:38;;;;;;;15.88;9.40;;;15.70;77.20;;;;;;5095020;28;20044;-69
2022/04/13 07:30:04;;;;;;;18.52;9.98;;;15.90;77.30;;;;;;5078760;28;20055;-68
2022/04/13 07:32:30;;;;;;;15.88;9.48;;;16.20;76.80;;;;;;5111351;28;20043;-69
2022/04/13 07:34:58;;;;;;;16.40;8.90;;;16.40;76.70;;;;;;5094317;28;20044;-69
2022/04/13 07:37:24;;;;;;;12.30;8.52;;;16.60;76.10;;;;;;5087205;28;20051;-70
2022/04/13 07:39:51;;;;;;;15.15;8.75;;;16.90;75.90;;;;;;5072707;28;20407;-71
2022/04/13 07:42:21;;;;;;;15.63;9.45;;;16.70;75.30;;;;;;5089160;28;20063;-71
2022/04/13 07:44:47;;;;;;;14.52;9.43;;;17.00;73.50;;;;;;5086062;28;20100;-70
2022/04/13 07:47:14;;;;;;;15.27;8.93;;;17.20;74.80;;;;;;5093673;28;20422;-70
2022/04/13 07:49:41;;;;;;;15.23;9.57;;;17.60;74.20;;;;;;5091704;28;20036;-70
2022/04/13 07:52:10;;;;;;;15.20;8.95;;;17.80;73.30;;;;;;5090583;28;20503;-71
2022/04/13 07:54:35;;;;;;;12.32;8.95;;;17.90;72.40;;;;;;5092079;28;20059;-70
2022/04/13 07:57:02;;;;;;;14.55;8.93;;;17.80;71.70;;;;;;5091451;28;20392;-71
2022/04/13 07:59:28;;;;;;;14.73;9.18;;;17.70;71.00;;;;;;5090481;28;20040;-71
2022/04/13 08:01:54;;;;;;;15.70;9.40;;;17.60;70.40;;;;;;5090536;28;20513;-70
2022/04/13 08:04:20;;;;;;;14.90;8.95;;;17.50;70.50;;;;;;5094187;28;20039;-71
2022/04/13 08:06:46;;;;;;;15.60;9.65;;;17.30;70.50;;;;;;5094160;28;20043;-70
2022/04/13 08:09:11;;;;;;;15.40;8.77;;;17.10;69.80;;;;;;5110072;28;20490;-71
2022/04/13 08:11:37;;;;;;;13.93;9.55;;;17.10;70.40;;;;;;5090733;28;20059;-71
2022/04/13 08:14:02;;;;;;;18.25;10.05;;;17.00;70.40;;;;;;5093300;28;20495;-71
2022/04/13 08:16:28;;;;;;;14.30;9.45;;;17.00;70.60;;;;;;5093960;28;20536;-71
2022/04/13 08:18:53;;;;;;;16.63;9.77;;;17.00;70.80;;;;;;5093505;28;20045;-70
2022/04/13 08:21:19;;;;;;;14.57;10.10;;;17.00;71.10;;;;;;5076560;28;20039;-72
2022/04/13 08:23:44;;;;;;;15.02;9.77;;;16.90;71.20;;;;;;5091335;28;20096;-72
2022/04/13 08:26:10;;;;;;;15.90;9.77;;;16.90;71.20;;;;;;5088455;28;20769;-70
2022/04/13 08:28:35;;;;;;;15.98;10.00;;;16.90;71.90;;;;;;5109728;28;20039;-69
2022/04/13 08:31:04;;;;;;;17.35;10.57;;;17.00;71.30;;;;;;5093697;28;20164;-71
2022/04/13 08:33:30;;;;;;;15.35;10.15;;;16.90;71.10;;;;;;5092420;28;20080;-72
2022/04/13 08:35:57;;;;;;;15.85;10.40;;;16.80;71.10;;;;;;5076052;28;20662;-71
2022/04/13 08:38:23;;;;;;;15.98;8.77;;;16.80;71.20;;;;;;5090817;28;20040;-71
2022/04/13 08:41:11;;;;;;;14.13;9.73;;;16.50;71.10;;;;;;5091197;28;20765;-71
2022/04/13 08:43:51;;;;;;;20.13;9.48;;;16.40;71.40;;;;;;5067749;28;20035;-72
2022/04/13 08:46:27;;;;;;;17.95;9.10;;;16.30;71.80;;;;;;5077688;28;20039;-72
2022/04/13 08:48:56;;;;;;;14.43;8.90;;;16.30;72.00;;;;;;5093192;28;20061;-71
2022/04/13 08:51:23;;;;;;;15.38;9.20;;;16.40;72.20;;;;;;5076858;28;20057;-69
2022/04/13 08:54:00;;;;;;;14.23;9.27;;;16.70;71.80;;;;;;5091963;28;20047;-69
2022/04/13 08:56:27;;;;;;;13.38;8.27;;;17.10;71.10;;;;;;5091899;28;20123;-69
2022/04/13 08:59:04;;;;;;;14.15;8.77;;;17.80;70.30;;;;;;5093549;28;20405;-70
2022/04/13 09:02:10;;;;;;;17.50;9.52;;;18.20;68.50;;;;;;5079656;28;20039;-70
2022/04/13 09:04:41;;;;;;;15.80;9.45;;;18.10;67.70;;;;;;5056661;28;20055;-70
2022/04/13 09:07:08;;;;;;;;;;;18.10;67.90;;;;;;5093033;28;20110;-70
2022/04/13 09:09:39;;;;;;;;;;;18.30;66.80;;;;;;5089886;28;19916;-71
2022/04/13 09:12:06;;;;;;;;;;;18.40;67.10;;;;;;5091934;28;19919;-70
2022/04/13 09:14:32;;;;;;;;;;;18.60;66.00;;;;;;5093065;28;20294;-70
2022/04/13 09:16:59;;;;;;;;;;;18.90;65.90;;;;;;5076022;28;19915;-70
2022/04/13 09:19:25;;;;;;;;;;;19.10;65.60;;;;;;5093427;28;19992;-70
2022/04/13 09:21:51;;;;;;;;;;;19.50;66.00;;;;;;5091308;28;19922;-70
2022/04/13 09:24:17;;;;;;;;;;;19.90;65.10;;;;;;5082290;28;19934;-71
2022/04/13 09:26:43;;;;;;;;;;;19.90;62.50;;;;;;5090276;28;20478;-71
2022/04/13 09:29:08;;;;;;;;;;;19.50;61.60;;;;;;5102230;28;19915;-72
2022/04/13 09:31:34;;;;;;;;;;;19.70;63.00;;;;;;5074687;28;19954;-71
2022/04/13 09:34:00;;;;;;;;;;;19.80;64.00;;;;;;5091846;28;19924;-71
2022/04/13 09:36:25;;;;;;;;;;;19.50;62.80;;;;;;5085868;28;19932;-71
2022/04/13 09:38:52;;;;;;;;;;;19.50;63.20;;;;;;5082869;28;19963;-71
2022/04/13 09:41:17;;;;;;;;;;;19.70;62.70;;;;;;5089946;28;20331;-71
2022/04/13 09:43:52;;;;;;;;;;;19.50;63.00;;;;;;5075580;28;20005;-70
2022/04/13 09:46:29;;;;;;;;;;;19.70;63.70;;;;;;5091022;28;20266;-71
2022/04/13 09:49:14;;;;;;;;;;;19.80;63.10;;;;;;5090756;28;19984;-71
2022/04/13 09:51:49;;;;;;;;;;;20.00;64.20;;;;;;5066819;28;19923;-71
2022/04/13 09:54:15;;;;;;;;;;;20.20;62.10;;;;;;5077711;28;20434;-71
2022/04/13 09:56:44;;;;;;;;;;;20.40;62.00;;;;;;5087386;28;20023;-72
2022/04/13 09:59:10;;;;;;;;;;;20.30;60.80;;;;;;5085485;28;19920;-72
2022/04/13 10:01:36;;;;;;;;;;;20.00;60.70;;;;;;5089725;28;19930;-72
2022/04/13 10:04:07;;;;;;;;;;;19.70;59.30;;;;;;5104094;28;19978;-71
2022/04/13 10:06:35;;;;;;;;;;;20.00;60.50;;;;;;5069463;28;19927;-72
2022/04/13 10:09:11;;;;;;;;;;;20.20;59.60;;;;;;5086953;28;19933;-70
2022/04/13 10:11:36;;;;;;;;;;;20.30;59.00;;;;;;5087837;28;19916;-71
2022/04/13 10:14:02;;;;;;;;;;;20.70;57.80;;;;;;5091452;28;20018;-71
2022/04/13 10:16:34;;;;;;;;;;;20.90;57.40;;;;;;5078782;28;20563;-71
2022/04/13 10:19:01;;;;;;;;;;;21.90;57.60;;;;;;5104403;28;19919;-72
2022/04/13 10:21:36;;;;;;;;;;;22.60;55.70;;;;;;5106256;28;19999;-71
2022/04/13 10:24:02;;;;;;;;;;;23.40;53.50;;;;;;5094662;28;19946;-73
2022/04/13 10:26:27;;;;;;;;;;;23.80;49.10;;;;;;5080619;28;19923;-71
2022/04/13 10:28:53;;;;;;;;;;;23.30;48.00;;;;;;5088872;28;19919;-72
2022/04/13 10:31:18;;;;;;;;;;;22.90;49.90;;;;;;5088823;28;19969;-71
2022/04/13 10:33:48;;;;;;;;;;;22.60;51.80;;;;;;5086530;28;20311;-70
2022/04/13 10:36:14;;;;;;;;;;;22.80;52.70;;;;;;5105955;27;20231;-72
2022/04/13 10:38:40;;;;;;;;;;;22.20;51.70;;;;;;5068205;28;19948;-72
2022/04/13 10:41:07;;;;;;;;;;;22.10;51.80;;;;;;5078123;28;20016;-71
2022/04/13 10:43:33;;;;;;;;;;;21.60;52.50;;;;;;5089828;28;19974;-70
2022/04/13 10:45:58;;;;;;;;;;;21.10;54.70;;;;;;5088136;28;19959;-72
2022/04/13 10:48:27;;;;;;;;;;;20.90;54.50;;;;;;5084380;28;20006;-71
2022/04/13 10:50:59;;;;;;;;;;;21.00;55.80;;;;;;5088200;28;19968;-71
2022/04/13 10:53:27;;;;;;;;;;;20.80;56.30;;;;;;5088282;28;19927;-70
2022/04/13 10:56:00;;;;;;;;;;;20.80;56.50;;;;;;5107286;28;19916;-71
2022/04/13 10:58:43;;;;;;;;;;;20.90;57.30;;;;;;5083367;28;20379;-71
2022/04/13 11:01:11;;;;;;;;;;;21.20;57.30;;;;;;5091112;28;19991;-74
2022/04/13 11:03:38;;;;;;;;;;;20.90;56.10;;;;;;5085000;28;19929;-73
2022/04/13 11:06:07;;;;;;;;;;;21.00;56.90;;;;;;5091902;28;19939;-71
2022/04/13 11:09:02;;;;;;;;;;;21.30;56.80;;;;;;5089519;28;20309;-71
2022/04/13 11:11:29;;;;;;;;;;;21.20;55.40;;;;;;4999742;28;19917;-74
2022/04/13 11:13:55;;;;;;;;;;;21.20;55.50;;;;;;5087386;28;19965;-73
2022/04/13 11:16:21;;;;;;;;;;;21.30;55.50;;;;;;5092258;28;19923;-72
2022/04/13 11:19:05;;;;;;;;;;;21.30;55.60;;;;;;5088217;28;19970;-74
2022/04/13 11:21:51;;;;;;;;;;;21.10;55.70;;;;;;5095493;28;19966;-73
2022/04/13 11:24:35;;;;;;;;;;;20.80;56.60;;;;;;5069255;28;19962;-71
2022/04/13 11:27:01;;;;;;;;;;;20.60;56.70;;;;;;5073576;28;20053;-72
2022/04/13 11:29:34;;;;;;;;;;;20.50;57.50;;;;;;5075899;28;20410;-72
2022/04/13 11:31:59;;;;;;;;;;;20.60;58.00;;;;;;5075608;28;20059;-72
2022/04/13 11:34:35;;;;;;;;;;;20.50;57.60;;;;;;5091963;28;20007;-72
2022/04/13 11:37:03;;;;;;;;;;;20.30;58.00;;;;;;5091000;28;19920;-72
2022/04/13 11:39:44;;;;;;;;;;;20.10;59.40;;;;;;5070525;28;19990;-72
2022/04/13 11:42:15;;;;;;;;;;;20.10;59.30;;;;;;5074427;28;19924;-71
2022/04/13 11:44:48;;;;;;;;;;;20.00;60.00;;;;;;5092870;28;19981;-73
2022/04/13 11:47:14;;;;;;;;;;;19.90;59.90;;;;;;5075516;28;19961;-72
2022/04/13 11:50:03;;;;;;;;;;;20.00;59.10;;;;;;5095884;28;19916;-71
2022/04/13 11:52:37;;;;;;;;;;;20.00;58.70;;;;;;5068323;28;19999;-71
2022/04/13 11:55:13;;;;;;;;;;;20.00;58.10;;;;;;5094200;28;20018;-71
2022/04/13 11:57:51;;;;;;;;;;;20.00;57.70;;;;;;5095539;28;20411;-71
2022/04/13 12:00:36;;;;;;;;;;;20.10;56.90;;;;;;5091994;28;19920;-71
2022/04/13 12:03:01;;;;;;;;;;;19.90;57.50;;;;;;5095700;28;19920;-72
2022/04/13 12:05:27;;;;;;;;;;;19.70;57.00;;;;;;5095192;28;20072;-71
2022/04/13 12:07:52;;;;;;;;;;;19.50;57.40;;;;;;5060618;28;19920;-72
2022/04/13 12:10:18;;;;;;;;;;;19.40;57.40;;;;;;5068641;28;20299;-71
2022/04/13 12:12:51;;;;;;;;;;;19.40;58.10;;;;;;5061387;28;19943;-72
2022/04/13 12:15:16;;;;;;;;;;;19.60;59.20;;;;;;5053074;28;19916;-71
2022/04/13 12:17:42;;;;;;;;;;;19.90;58.70;;;;;;5071940;28;20356;-71
2022/04/13 12:20:07;;;;;;;;;;;20.30;58.80;;;;;;5070333;28;19916;-70
2022/04/13 12:22:34;;;;;;;;;;;20.60;56.20;;;;;;5070879;28;20376;-71
2022/04/13 12:25:03;;;;;;;;;;;20.80;54.50;;;;;;5070360;28;19963;-70
2022/04/13 12:27:28;;;;;;;;;;;20.80;53.40;;;;;;5071185;28;19963;-69
2022/04/13 12:30:13;;;;;;;;;;;20.90;54.10;;;;;;5070216;28;19974;-68
2022/04/13 12:32:45;;;;;;;;;;;20.80;52.70;;;;;;5071646;28;20344;-70
2022/04/13 12:35:11;;;;;;;;;;;20.70;52.60;;;;;;5054473;28;20002;-71
2022/04/13 12:37:37;;;;;;;;;;;20.30;54.00;;;;;;5070763;28;20105;-70
2022/04/13 12:40:17;;;;;;;;;;;20.10;54.10;;;;;;5068888;28;19917;-70
2022/04/13 12:42:42;;;;;;;;;;;20.00;55.50;;;;;;5070892;28;19916;-69
2022/04/13 12:45:11;;;;;;;;;;;19.90;55.70;;;;;;5071905;28;19921;-71
2022/04/13 12:47:44;;;;;;;;;;;19.80;57.10;;;;;;5071727;28;19920;-70
2022/04/13 12:50:10;;;;;;;;;;;19.70;57.40;;;;;;5070306;28;19924;-70
2022/04/13 12:52:35;;;;;;;;;;;19.50;59.00;;;;;;5069959;28;20830;-70
2022/04/13 12:55:04;;;;;;;;;;;19.30;59.60;;;;;;5053071;28;20022;-70
2022/04/13 12:57:30;;;;;;;;;;;19.30;60.10;;;;;;5054086;28;20379;-71
2022/04/13 12:59:55;;;;;;;;;;;19.30;60.50;;;;;;5069753;28;19916;-70
2022/04/13 13:02:20;;;;;;;;;;;19.00;61.10;;;;;;5052771;28;19916;-70